Time;durP1;ratioP1;P1;durP2;ratioP2;P2;SDS_P1;SDS_P2;PMS_P1;PMS_P2;Temp;Humidity;BMP_temperature;BMP_pressure;BME280_temperature;BME280_humidity;BME280_pressure;Samples;Min_cycle;Max_cycle;Signal;HPM_P1;HPM_P2
2022/01/13 00:02:12;;;;;;;;;;;;;;;;;;7395782;19;19919;-52
2022/01/13 00:04:39;;;;;;;;;;;;;;;;;;7396075;19;19918;-53
2022/01/13 00:07:06;;;;;;;;;;;;;;;;;;7393372;19;19971;-49
2022/01/13 00:09:34;;;;;;;;;;;;;;;;;;7395288;19;19995;-50
2022/01/13 00:12:01;;;;;;;;;;;;;;;;;;7393977;19;20247;-45
2022/01/13 00:17:27;;;;;;;;;;;;;;;;;;7395466;19;19914;-51
2022/01/13 00:25:52;;;;;;;;;;;;;;;;;;7394308;19;19911;-49
2022/01/13 00:28:21;;;;;;;;;;;;;;;;;;7395256;19;19927;-48
2022/01/13 00:30:52;;;;;;;;;;;;;;;;;;7394840;19;19914;-48
2022/01/13 00:33:24;;;;;;;;;;;;;;;;;;7394976;19;19911;-49
2022/01/13 00:35:52;;;;;;;;;;;;;;;;;;7394654;19;19989;-41
2022/01/13 00:38:20;;;;;;;;;;;;;;;;;;7395365;19;19914;-46
2022/01/13 00:40:47;;;;;;;;;;;;;;;;;;7394036;19;20287;-44
2022/01/13 00:43:14;;;;;;;;;;;;;;;;;;7394661;19;19914;-45
2022/01/13 00:45:42;;;;;;;;;;;;;;;;;;7394302;19;20324;-48
2022/01/13 00:48:09;;;;;;;;;;;;;;;;;;7394341;19;19911;-48
2022/01/13 00:50:36;;;;;;;;;;;;;;;;;;7396750;19;20304;-46
2022/01/13 00:53:03;;;;;;;;;;;;;;;;;;7394218;19;20338;-45
2022/01/13 00:55:58;;;;;;;;;;;;;;;;;;7394246;19;19915;-49
2022/01/13 00:58:27;;;;;;;;;;;;;;;;;;7394373;19;19922;-50
2022/01/13 01:00:54;;;;;;;;;;;;;;;;;;7393063;19;19995;-51
2022/01/13 01:03:22;;;;;;;;;;;;;;;;;;7394582;19;19931;-48
2022/01/13 01:05:49;;;;;;;;;;;;;;;;;;7393686;19;19919;-47
2022/01/13 01:08:17;;;;;;;;;;;;;;;;;;7393795;19;19925;-50
2022/01/13 01:10:50;;;;;;;;;;;;;;;;;;7392289;19;19923;-46
2022/01/13 01:13:21;;;;;;;;;;;;;;;;;;7393556;19;19914;-50
2022/01/13 01:15:52;;;;;;;;;;;;;;;;;;7393517;19;19911;-44
2022/01/13 01:18:31;;;;;;;;;;;;;;;;;;7393643;19;20366;-42
2022/01/13 01:29:17;;;;;;;;;;;;;;;;;;7393603;19;19915;-49
2022/01/13 01:31:48;;;;;;;;;;;;;;;;;;7392993;19;19930;-44
2022/01/13 01:34:39;;;;;;;;;;;;;;;;;;7392951;19;19926;-48
2022/01/13 01:37:14;;;;;;;;;;;;;;;;;;7392582;19;19919;-47
2022/01/13 01:39:42;;;;;;;;;;;;;;;;;;7393226;19;19939;-45
2022/01/13 01:42:09;;;;;;;;;;;;;;;;;;7387075;19;19925;-45
2022/01/13 01:44:41;;;;;;;;;;;;;;;;;;7388565;19;19933;-41
2022/01/13 01:47:10;;;;;;;;;;;;;;;;;;7389411;19;19919;-47
2022/01/13 01:49:40;;;;;;;;;;;;;;;;;;7388767;19;19919;-43
2022/01/13 01:52:08;;;;;;;;;;;;;;;;;;7388501;19;19919;-47
2022/01/13 01:54:36;;;;;;;;;;;;;;;;;;7388786;19;19937;-43
2022/01/13 01:57:04;;;;;;;;;;;;;;;;;;7388313;19;19937;-45
2022/01/13 01:59:34;;;;;;;;;;;;;;;;;;7387942;19;20051;-48
2022/01/13 02:02:01;;;;;;;;;;;;;;;;;;7386306;19;19938;-40
2022/01/13 02:04:29;;;;;;;;;;;;;;;;;;7392578;19;19915;-47
2022/01/13 02:06:59;;;;;;;;;;;;;;;;;;7386919;19;19946;-41
2022/01/13 02:09:26;;;;;;;;;;;;;;;;;;7388438;19;19929;-43
2022/01/13 02:11:57;;;;;;;;;;;;;;;;;;7386292;19;19923;-45
2022/01/13 02:16:59;;;;;;;;;;;;;;;;;;7388723;19;19915;-47
2022/01/13 02:19:26;;;;;;;;;;;;;;;;;;7388429;19;19941;-48
2022/01/13 02:21:54;;;;;;;;;;;;;;;;;;7386132;19;19946;-41
2022/01/13 02:24:22;;;;;;;;;;;;;;;;;;7387473;19;19923;-45
2022/01/13 02:26:49;;;;;;;;;;;;;;;;;;7387437;19;19915;-45
2022/01/13 02:29:16;;;;;;;;;;;;;;;;;;7387379;19;19919;-44
2022/01/13 02:31:43;;;;;;;;;;;;;;;;;;7387370;19;19922;-42
2022/01/13 02:34:11;;;;;;;;;;;;;;;;;;7387364;19;19950;-48
2022/01/13 02:36:41;;;;;;;;;;;;;;;;;;7386848;19;19915;-42
2022/01/13 02:39:08;;;;;;;;;;;;;;;;;;7387667;19;19919;-43
2022/01/13 02:41:35;;;;;;;;;;;;;;;;;;7385905;19;19933;-47
2022/01/13 02:44:02;;;;;;;;;;;;;;;;;;7387481;19;19923;-41
2022/01/13 02:49:05;;;;;;;;;;;;;;;;;;7394509;19;19915;-40
2022/01/13 02:51:33;;;;;;;;;;;;;;;;;;7398723;19;20328;-40
2022/01/13 02:54:01;;;;;;;;;;;;;;;;;;7394181;19;19922;-40
2022/01/13 02:56:28;;;;;;;;;;;;;;;;;;7393641;19;19918;-41
2022/01/13 02:58:56;;;;;;;;;;;;;;;;;;7394476;19;20343;-39
2022/01/13 03:01:23;;;;;;;;;;;;;;;;;;7390642;19;20006;-45
2022/01/13 03:03:51;;;;;;;;;;;;;;;;;;7393692;19;19919;-39
2022/01/13 03:06:33;;;;;;;;;;;;;;;;;;7393454;19;19915;-38
2022/01/13 03:09:01;;;;;;;;;;;;;;;;;;7394336;19;20324;-38
2022/01/13 03:11:33;;;;;;;;;;;;;;;;;;7391185;19;19931;-38
2022/01/13 03:14:01;;;;;;;;;;;;;;;;;;7394001;19;19926;-38
2022/01/13 03:16:29;;;;;;;;;;;;;;;;;;7392976;19;19919;-39
2022/01/13 03:18:56;;;;;;;;;;;;;;;;;;7394172;19;19919;-42
2022/01/13 03:21:23;;;;;;;;;;;;;;;;;;7391662;19;19930;-40
2022/01/13 03:23:51;;;;;;;;;;;;;;;;;;7391939;19;19915;-46
2022/01/13 03:26:21;;;;;;;;;;;;;;;;;;7392647;19;19919;-42
2022/01/13 03:28:54;;;;;;;;;;;;;;;;;;7393585;19;19933;-39
2022/01/13 03:31:23;;;;;;;;;;;;;;;;;;7393217;19;19921;-46
2022/01/13 03:33:51;;;;;;;;;;;;;;;;;;7392533;19;19915;-40
2022/01/13 03:36:18;;;;;;;;;;;;;;;;;;7392948;19;20329;-42
2022/01/13 03:38:46;;;;;;;;;;;;;;;;;;7393037;19;19918;-41
2022/01/13 03:41:13;;;;;;;;;;;;;;;;;;7391772;19;19954;-41
2022/01/13 03:43:41;;;;;;;;;;;;;;;;;;7392494;19;19926;-42
2022/01/13 03:46:08;;;;;;;;;;;;;;;;;;7392387;19;20155;-44
2022/01/13 03:48:38;;;;;;;;;;;;;;;;;;7392185;19;19983;-39
2022/01/13 03:51:05;;;;;;;;;;;;;;;;;;7396001;19;19921;-46
2022/01/13 03:53:39;;;;;;;;;;;;;;;;;;7392682;19;19911;-44
2022/01/13 03:56:06;;;;;;;;;;;;;;;;;;7392349;19;20260;-47
2022/01/13 03:58:45;;;;;;;;;;;;;;;;;;7389744;19;19922;-41
2022/01/13 04:01:15;;;;;;;;;;;;;;;;;;7391454;19;19923;-45
2022/01/13 04:03:43;;;;;;;;;;;;;;;;;;7392282;19;19926;-41
2022/01/13 04:06:16;;;;;;;;;;;;;;;;;;7391866;19;19926;-46
2022/01/13 04:08:47;;;;;;;;;;;;;;;;;;7396020;19;19942;-41
2022/01/13 04:11:17;;;;;;;;;;;;;;;;;;7394119;19;19919;-41
2022/01/13 04:16:17;;;;;;;;;;;;;;;;;;7395752;19;19919;-47
2022/01/13 04:18:49;;;;;;;;;;;;;;;;;;7395223;19;19922;-43
2022/01/13 04:21:17;;;;;;;;;;;;;;;;;;7394468;19;19918;-39
2022/01/13 04:23:44;;;;;;;;;;;;;;;;;;7395512;19;20002;-45
2022/01/13 04:26:12;;;;;;;;;;;;;;;;;;7396487;19;19918;-43
2022/01/13 04:28:41;;;;;;;;;;;;;;;;;;7395334;19;19918;-42
2022/01/13 04:31:08;;;;;;;;;;;;;;;;;;7395416;19;19978;-41
2022/01/13 04:33:37;;;;;;;;;;;;;;;;;;7395442;19;19915;-39
2022/01/13 04:36:05;;;;;;;;;;;;;;;;;;7393368;19;19950;-45
2022/01/13 04:38:33;;;;;;;;;;;;;;;;;;7394825;19;19923;-40
2022/01/13 04:41:02;;;;;;;;;;;;;;;;;;7395276;19;19921;-40
2022/01/13 04:43:30;;;;;;;;;;;;;;;;;;7394928;19;19919;-42
2022/01/13 04:45:57;;;;;;;;;;;;;;;;;;7395203;19;19922;-44
2022/01/13 04:48:24;;;;;;;;;;;;;;;;;;7394048;19;19921;-42
2022/01/13 04:50:52;;;;;;;;;;;;;;;;;;7397402;19;19915;-49
2022/01/13 04:53:19;;;;;;;;;;;;;;;;;;7394437;19;19914;-44
2022/01/13 04:55:51;;;;;;;;;;;;;;;;;;7394543;19;20355;-49
2022/01/13 04:58:21;;;;;;;;;;;;;;;;;;7394029;19;19922;-51
2022/01/13 05:00:49;;;;;;;;;;;;;;;;;;7392538;19;19915;-50
2022/01/13 05:03:16;;;;;;;;;;;;;;;;;;7393946;19;19923;-43
2022/01/13 05:05:44;;;;;;;;;;;;;;;;;;7394093;19;19919;-49
2022/01/13 05:08:11;;;;;;;;;;;;;;;;;;7394245;19;19948;-51
2022/01/13 05:10:38;;;;;;;;;;;;;;;;;;7391975;19;19926;-44
2022/01/13 05:13:08;;;;;;;;;;;;;;;;;;7393709;19;19915;-49
2022/01/13 05:15:38;;;;;;;;;;;;;;;;;;7393108;19;19915;-52
2022/01/13 05:18:15;;;;;;;;;;;;;;;;;;7393208;19;19925;-51
2022/01/13 05:20:56;;;;;;;;;;;;;;;;;;7393393;19;19915;-49
2022/01/13 05:23:24;;;;;;;;;;;;;;;;;;7391633;19;20466;-47
2022/01/13 05:25:51;;;;;;;;;;;;;;;;;;7393227;19;19926;-51
2022/01/13 05:28:18;;;;;;;;;;;;;;;;;;7391793;19;19927;-43
2022/01/13 05:30:46;;;;;;;;;;;;;;;;;;7393204;19;19915;-48
2022/01/13 05:33:13;;;;;;;;;;;;;;;;;;7392850;19;19915;-53
2022/01/13 05:35:40;;;;;;;;;;;;;;;;;;7393115;19;20354;-44
2022/01/13 05:38:08;;;;;;;;;;;;;;;;;;7392573;19;19935;-44
2022/01/13 05:40:36;;;;;;;;;;;;;;;;;;7392509;19;19999;-48
2022/01/13 05:43:04;;;;;;;;;;;;;;;;;;7391687;19;19935;-44
2022/01/13 05:45:36;;;;;;;;;;;;;;;;;;7393395;19;19917;-51
2022/01/13 05:48:04;;;;;;;;;;;;;;;;;;7392683;19;20014;-50
2022/01/13 05:50:31;;;;;;;;;;;;;;;;;;7394610;19;19915;-45
2022/01/13 05:52:59;;;;;;;;;;;;;;;;;;7392905;19;19921;-47
2022/01/13 05:55:26;;;;;;;;;;;;;;;;;;7392655;19;19971;-48
2022/01/13 05:57:53;;;;;;;;;;;;;;;;;;7392117;19;19919;-50
2022/01/13 06:00:22;;;;;;;;;;;;;;;;;;7392421;19;19947;-48
2022/01/13 06:02:50;;;;;;;;;;;;;;;;;;7390735;19;19918;-47
2022/01/13 06:05:18;;;;;;;;;;;;;;;;;;7391831;19;20245;-47
2022/01/13 06:07:46;;;;;;;;;;;;;;;;;;7391738;19;19915;-54
2022/01/13 06:10:18;;;;;;;;;;;;;;;;;;7390703;19;19922;-50
2022/01/13 06:12:49;;;;;;;;;;;;;;;;;;7391739;19;19911;-52
2022/01/13 06:15:22;;;;;;;;;;;;;;;;;;7391241;19;19911;-47
2022/01/13 06:17:51;;;;;;;;;;;;;;;;;;7392366;19;19919;-46
2022/01/13 06:20:19;;;;;;;;;;;;;;;;;;7391539;19;20309;-46
2022/01/13 06:22:47;;;;;;;;;;;;;;;;;;7393134;19;20363;-51
2022/01/13 06:25:15;;;;;;;;;;;;;;;;;;7399291;19;19939;-52
2022/01/13 06:27:43;;;;;;;;;;;;;;;;;;7399117;19;19928;-49
2022/01/13 06:30:30;;;;;;;;;;;;;;;;;;7401905;19;19915;-44
2022/01/13 06:32:58;;;;;;;;;;;;;;;;;;7398246;19;20433;-48
2022/01/13 06:35:25;;;;;;;;;;;;;;;;;;7398314;19;19940;-44
2022/01/13 06:37:52;;;;;;;;;;;;;;;;;;7395810;19;20367;-51
2022/01/13 06:40:20;;;;;;;;;;;;;;;;;;7398802;19;19978;-45
2022/01/13 06:42:47;;;;;;;;;;;;;;;;;;7395825;19;19911;-46
2022/01/13 06:45:14;;;;;;;;;;;;;;;;;;7398292;19;19915;-47
2022/01/13 06:47:42;;;;;;;;;;;;;;;;;;7398343;19;19919;-49
2022/01/13 06:50:11;;;;;;;;;;;;;;;;;;7399508;19;19934;-44
2022/01/13 06:52:38;;;;;;;;;;;;;;;;;;7397967;19;19922;-43
2022/01/13 06:55:06;;;;;;;;;;;;;;;;;;7397874;19;19919;-48
2022/01/13 06:57:33;;;;;;;;;;;;;;;;;;7398024;19;19922;-49
2022/01/13 07:00:01;;;;;;;;;;;;;;;;;;7398162;19;19919;-47
2022/01/13 07:02:30;;;;;;;;;;;;;;;;;;7395873;19;20324;-49
2022/01/13 07:04:57;;;;;;;;;;;;;;;;;;7396528;19;19914;-48
2022/01/13 07:07:33;;;;;;;;;;;;;;;;;;7398098;19;19922;-46
2022/01/13 07:10:04;;;;;;;;;;;;;;;;;;7396581;19;19927;-52
2022/01/13 07:12:32;;;;;;;;;;;;;;;;;;7397755;19;20332;-47
2022/01/13 07:14:59;;;;;;;;;;;;;;;;;;7397643;19;19919;-44
2022/01/13 07:17:26;;;;;;;;;;;;;;;;;;7396562;19;19942;-43
2022/01/13 07:19:54;;;;;;;;;;;;;;;;;;7397788;19;19933;-43
2022/01/13 07:22:21;;;;;;;;;;;;;;;;;;7395790;19;19915;-48
2022/01/13 07:24:48;;;;;;;;;;;;;;;;;;7397034;19;19911;-46
2022/01/13 07:27:15;;;;;;;;;;;;;;;;;;7396524;19;19919;-48
2022/01/13 07:29:43;;;;;;;;;;;;;;;;;;7397548;19;19930;-43
2022/01/13 07:32:11;;;;;;;;;;;;;;;;;;7396657;19;19918;-47
2022/01/13 07:34:39;;;;;;;;;;;;;;;;;;7396414;19;19942;-45
2022/01/13 07:37:06;;;;;;;;;;;;;;;;;;7396859;19;19945;-44
2022/01/13 07:39:35;;;;;;;;;;;;;;;;;;7396532;19;19922;-44
2022/01/13 07:42:03;;;;;;;;;;;;;;;;;;7396770;19;20023;-50
2022/01/13 07:44:30;;;;;;;;;;;;;;;;;;7397020;19;20150;-45
2022/01/13 07:46:59;;;;;;;;;;;;;;;;;;7395476;19;19927;-49
2022/01/13 07:49:26;;;;;;;;;;;;;;;;;;7395518;19;20466;-45
2022/01/13 07:51:53;;;;;;;;;;;;;;;;;;7396224;19;19926;-45
2022/01/13 07:54:21;;;;;;;;;;;;;;;;;;7391693;19;19911;-43
2022/01/13 07:56:52;;;;;;;;;;;;;;;;;;7396624;19;19919;-47
2022/01/13 07:59:19;;;;;;;;;;;;;;;;;;7395666;19;19919;-46
2022/01/13 08:01:47;;;;;;;;;;;;;;;;;;7394997;19;20344;-44
2022/01/13 08:04:17;;;;;;;;;;;;;;;;;;7393435;19;19914;-43
2022/01/13 08:06:44;;;;;;;;;;;;;;;;;;7396127;19;19929;-48
2022/01/13 08:09:11;;;;;;;;;;;;;;;;;;7395778;19;19919;-46
2022/01/13 08:11:38;;;;;;;;;;;;;;;;;;7393543;19;19922;-45
2022/01/13 08:14:05;;;;;;;;;;;;;;;;;;7395348;19;19939;-49
2022/01/13 08:16:35;;;;;;;;;;;;;;;;;;7392994;19;19919;-44
2022/01/13 08:21:48;;;;;;;;;;;;;;;;;;7393155;19;19923;-46
2022/01/13 08:24:15;;;;;;;;;;;;;;;;;;7395939;19;19918;-47
2022/01/13 08:26:45;;;;;;;;;;;;;;;;;;7380062;19;19974;-45
2022/01/13 08:29:13;;;;;;;;;;;;;;;;;;7390454;19;20363;-42
2022/01/13 08:31:40;;;;;;;;;;;;;;;;;;7389552;19;19934;-46
2022/01/13 08:34:07;;;;;;;;;;;;;;;;;;7391206;19;19983;-44
2022/01/13 08:36:34;;;;;;;;;;;;;;;;;;7392787;19;20368;-52
2022/01/13 08:39:02;;;;;;;;;;;;;;;;;;7391205;19;19946;-47
2022/01/13 08:41:30;;;;;;;;;;;;;;;;;;7390623;19;19919;-47
2022/01/13 08:43:57;;;;;;;;;;;;;;;;;;7389375;19;19923;-45
2022/01/13 08:46:25;;;;;;;;;;;;;;;;;;7388195;19;19918;-45
2022/01/13 08:48:53;;;;;;;;;;;;;;;;;;7390341;19;19919;-43
2022/01/13 08:51:20;;;;;;;;;;;;;;;;;;7390917;19;19922;-50
2022/01/13 08:53:48;;;;;;;;;;;;;;;;;;7390566;19;19915;-46
2022/01/13 08:56:15;;;;;;;;;;;;;;;;;;7386999;19;20256;-45
2022/01/13 08:58:43;;;;;;;;;;;;;;;;;;7393449;19;19956;-44
2022/01/13 09:01:10;;;;;;;;;;;;;;;;;;7390788;19;19919;-45
2022/01/13 09:03:38;;;;;;;;;;;;;;;;;;7388780;19;19925;-45
2022/01/13 09:06:05;;;;;;;;;;;;;;;;;;7389934;19;19943;-47
2022/01/13 09:08:34;;;;;;;;;;;;;;;;;;7389718;19;20436;-47
2022/01/13 09:11:02;;;;;;;;;;;;;;;;;;7387795;19;19951;-49
2022/01/13 09:13:35;;;;;;;;;;;;;;;;;;7390670;19;19958;-47
2022/01/13 09:16:04;;;;;;;;;;;;;;;;;;7389438;19;19947;-51
2022/01/13 09:18:45;;;;;;;;;;;;;;;;;;7390085;19;19982;-50
2022/01/13 09:21:13;;;;;;;;;;;;;;;;;;7391925;19;19923;-45
2022/01/13 09:23:40;;;;;;;;;;;;;;;;;;7388381;19;20341;-45
2022/01/13 09:26:08;;;;;;;;;;;;;;;;;;7389736;19;19977;-44
2022/01/13 09:28:35;;;;;;;;;;;;;;;;;;7390997;19;19915;-44
2022/01/13 09:31:03;;;;;;;;;;;;;;;;;;7388994;19;19923;-46
2022/01/13 09:33:30;;;;;;;;;;;;;;;;;;7389360;19;19927;-44
2022/01/13 09:35:58;;;;;;;;;;;;;;;;;;7388790;19;19915;-46
2022/01/13 09:38:25;;;;;;;;;;;;;;;;;;7388530;19;20339;-44
2022/01/13 09:40:53;;;;;;;;;;;;;;;;;;7389134;19;19919;-46
2022/01/13 09:43:24;;;;;;;;;;;;;;;;;;7387544;19;19952;-46
2022/01/13 09:45:52;;;;;;;;;;;;;;;;;;7388803;19;19922;-43
2022/01/13 09:48:20;;;;;;;;;;;;;;;;;;7387890;19;19919;-43
2022/01/13 09:50:47;;;;;;;;;;;;;;;;;;7387395;19;19915;-43
2022/01/13 09:53:15;;;;;;;;;;;;;;;;;;7385119;19;20034;-44
2022/01/13 09:55:43;;;;;;;;;;;;;;;;;;7384351;19;20462;-44
2022/01/13 09:58:14;;;;;;;;;;;;;;;;;;7384350;19;19926;-45
2022/01/13 10:00:42;;;;;;;;;;;;;;;;;;7382714;19;19943;-44
2022/01/13 10:03:11;;;;;;;;;;;;;;;;;;7383389;19;20336;-46
2022/01/13 10:05:49;;;;;;;;;;;;;;;;;;7383767;19;19915;-48
2022/01/13 10:08:22;;;;;;;;;;;;;;;;;;7384707;19;19942;-43
2022/01/13 10:10:49;;;;;;;;;;;;;;;;;;7386745;19;19915;-44
2022/01/13 10:13:28;;;;;;;;;;;;;;;;;;7388149;19;19991;-44
2022/01/13 10:18:42;;;;;;;;;;;;;;;;;;7387411;19;19918;-44
2022/01/13 10:21:14;;;;;;;;;;;;;;;;;;7390287;19;19943;-46
2022/01/13 10:24:00;;;;;;;;;;;;;;;;;;7386501;19;20038;-47
2022/01/13 10:26:29;;;;;;;;;;;;;;;;;;7387672;19;19943;-43
2022/01/13 10:28:57;;;;;;;;;;;;;;;;;;7386156;19;19919;-46
2022/01/13 10:31:44;;;;;;;;;;;;;;;;;;7387549;19;19915;-44
2022/01/13 10:34:26;;;;;;;;;;;;;;;;;;7389173;19;19925;-44
2022/01/13 10:36:57;;;;;;;;;;;;;;;;;;7391193;19;20371;-44
2022/01/13 10:39:51;;;;;;;;;;;;;;;;;;7387277;19;19925;-45
2022/01/13 10:45:01;;;;;;;;;;;;;;;;;;7385997;19;20289;-45
2022/01/13 10:47:30;;;;;;;;;;;;;;;;;;7387095;19;19918;-43
2022/01/13 10:50:01;;;;;;;;;;;;;;;;;;7388105;19;19915;-51
2022/01/13 10:52:29;;;;;;;;;;;;;;;;;;7386886;19;19911;-53
2022/01/13 10:55:03;;;;;;;;;;;;;;;;;;7387072;19;19919;-49
2022/01/13 10:57:30;;;;;;;;;;;;;;;;;;7387165;19;19918;-51
2022/01/13 10:59:58;;;;;;;;;;;;;;;;;;7386880;19;20666;-46
2022/01/13 11:02:25;;;;;;;;;;;;;;;;;;7390074;19;20287;-51
2022/01/13 11:04:53;;;;;;;;;;;;;;;;;;7386678;19;20006;-52
2022/01/13 11:07:25;;;;;;;;;;;;;;;;;;7386832;19;19943;-51
2022/01/13 11:09:53;;;;;;;;;;;;;;;;;;7392947;19;20463;-46
2022/01/13 11:12:38;;;;;;;;;;;;;;;;;;7394131;19;19919;-44
2022/01/13 11:15:08;;;;;;;;;;;;;;;;;;7393729;19;19915;-46
2022/01/13 11:17:39;;;;;;;;;;;;;;;;;;7396139;19;19948;-48
2022/01/13 11:20:08;;;;;;;;;;;;;;;;;;7393932;19;19922;-52
2022/01/13 11:22:36;;;;;;;;;;;;;;;;;;7392914;19;19925;-46
2022/01/13 11:25:04;;;;;;;;;;;;;;;;;;7397480;19;19918;-50
2022/01/13 11:27:33;;;;;;;;;;;;;;;;;;7393621;19;19978;-48
2022/01/13 11:30:01;;;;;;;;;;;;;;;;;;7393634;19;19919;-48
2022/01/13 11:32:28;;;;;;;;;;;;;;;;;;7393203;19;20346;-44
2022/01/13 11:34:58;;;;;;;;;;;;;;;;;;7395224;19;19911;-44
2022/01/13 11:37:26;;;;;;;;;;;;;;;;;;7393709;19;19930;-46
2022/01/13 11:39:54;;;;;;;;;;;;;;;;;;7398055;19;19922;-48
2022/01/13 11:42:21;;;;;;;;;;;;;;;;;;7392638;19;19919;-43
2022/01/13 11:45:07;;;;;;;;;;;;;;;;;;7390567;19;19919;-50
2022/01/13 11:47:34;;;;;;;;;;;;;;;;;;7392424;19;19923;-44
2022/01/13 11:50:30;;;;;;;;;;;;;;;;;;7392448;19;19915;-45
2022/01/13 11:52:58;;;;;;;;;;;;;;;;;;7392395;19;19949;-44
2022/01/13 11:55:28;;;;;;;;;;;;;;;;;;7392177;19;19946;-44
2022/01/13 11:58:16;;;;;;;;;;;;;;;;;;7392391;19;19952;-44
2022/01/13 12:00:45;;;;;;;;;;;;;;;;;;7396746;19;19919;-43
2022/01/13 12:03:25;;;;;;;;;;;;;;;;;;7395193;19;19939;-44
2022/01/13 12:05:53;;;;;;;;;;;;;;;;;;7396524;19;19922;-45
2022/01/13 12:08:40;;;;;;;;;;;;;;;;;;7396116;19;19927;-47
2022/01/13 12:11:09;;;;;;;;;;;;;;;;;;7394580;19;19918;-47
2022/01/13 12:13:38;;;;;;;;;;;;;;;;;;7395839;19;19915;-46
2022/01/13 12:16:06;;;;;;;;;;;;;;;;;;7395697;19;19939;-49
2022/01/13 12:18:43;;;;;;;;;;;;;;;;;;7395175;19;19943;-45
2022/01/13 12:21:24;;;;;;;;;;;;;;;;;;7395870;19;19919;-44
2022/01/13 12:23:51;;;;;;;;;;;;;;;;;;7395107;19;19918;-48
2022/01/13 12:26:31;;;;;;;;;;;;;;;;;;7395614;19;20262;-44
2022/01/13 12:29:11;;;;;;;;;;;;;;;;;;7394526;19;19923;-49
2022/01/13 12:31:51;;;;;;;;;;;;;;;;;;7394999;19;19915;-47
2022/01/13 12:34:39;;;;;;;;;;;;;;;;;;7395312;19;19918;-50
2022/01/13 12:37:09;;;;;;;;;;;;;;;;;;7393786;19;20304;-45
2022/01/13 12:39:43;;;;;;;;;;;;;;;;;;7393948;19;19910;-49
2022/01/13 12:42:15;;;;;;;;;;;;;;;;;;7394909;19;19907;-44
2022/01/13 12:47:28;;;;;;;;;;;;;;;;;;7394714;19;19935;-44
2022/01/13 12:49:56;;;;;;;;;;;;;;;;;;7393704;19;20336;-45
2022/01/13 12:52:26;;;;;;;;;;;;;;;;;;7394901;19;19919;-44
2022/01/13 12:54:54;;;;;;;;;;;;;;;;;;7394090;19;19923;-45
2022/01/13 12:57:24;;;;;;;;;;;;;;;;;;7394573;19;20265;-47
2022/01/13 12:59:55;;;;;;;;;;;;;;;;;;7394828;19;20328;-48
2022/01/13 13:02:24;;;;;;;;;;;;;;;;;;7393455;19;19919;-44
2022/01/13 13:04:51;;;;;;;;;;;;;;;;;;7391956;19;19919;-48
2022/01/13 13:07:18;;;;;;;;;;;;;;;;;;7393921;19;19946;-44
2022/01/13 13:09:45;;;;;;;;;;;;;;;;;;7391481;19;19915;-48
2022/01/13 13:12:23;;;;;;;;;;;;;;;;;;7393539;19;19923;-46
2022/01/13 13:17:38;;;;;;;;;;;;;;;;;;7393657;19;19911;-45
2022/01/13 13:20:06;;;;;;;;;;;;;;;;;;7393654;19;19918;-43
2022/01/13 13:22:59;;;;;;;;;;;;;;;;;;7391165;19;19919;-46
2022/01/13 13:25:27;;;;;;;;;;;;;;;;;;7392042;19;19943;-48
2022/01/13 13:27:55;;;;;;;;;;;;;;;;;;7393429;19;19918;-47
2022/01/13 13:30:22;;;;;;;;;;;;;;;;;;7393222;19;19942;-44
2022/01/13 13:33:10;;;;;;;;;;;;;;;;;;7393816;19;20287;-44
2022/01/13 13:35:37;;;;;;;;;;;;;;;;;;7394780;19;19978;-45
2022/01/13 13:38:04;;;;;;;;;;;;;;;;;;7393302;19;19923;-45
2022/01/13 13:40:31;;;;;;;;;;;;;;;;;;7393282;19;19911;-52
2022/01/13 13:43:02;;;;;;;;;;;;;;;;;;7393255;19;19933;-46
2022/01/13 13:45:30;;;;;;;;;;;;;;;;;;7392883;19;19919;-46
2022/01/13 13:47:58;;;;;;;;;;;;;;;;;;7392616;19;19947;-43
2022/01/13 13:50:26;;;;;;;;;;;;;;;;;;7393128;19;19922;-44
2022/01/13 13:53:07;;;;;;;;;;;;;;;;;;7391039;19;20336;-47
2022/01/13 13:55:35;;;;;;;;;;;;;;;;;;7392562;19;19911;-45
2022/01/13 13:58:03;;;;;;;;;;;;;;;;;;7390608;19;20313;-46
2022/01/13 14:00:30;;;;;;;;;;;;;;;;;;7389763;19;19919;-45
2022/01/13 14:02:59;;;;;;;;;;;;;;;;;;7390384;19;19994;-43
2022/01/13 14:05:38;;;;;;;;;;;;;;;;;;7392420;19;19922;-45
2022/01/13 14:08:07;;;;;;;;;;;;;;;;;;7392717;19;19919;-42
2022/01/13 14:10:34;;;;;;;;;;;;;;;;;;7391448;19;19929;-45
2022/01/13 14:13:08;;;;;;;;;;;;;;;;;;7392209;19;19911;-45
2022/01/13 14:15:39;;;;;;;;;;;;;;;;;;7391853;19;19919;-44
2022/01/13 14:18:11;;;;;;;;;;;;;;;;;;7392383;19;19932;-44
2022/01/13 14:20:40;;;;;;;;;;;;;;;;;;7393419;19;19939;-48
2022/01/13 14:23:09;;;;;;;;;;;;;;;;;;7391933;19;19974;-42
2022/01/13 14:25:38;;;;;;;;;;;;;;;;;;7391545;19;20361;-42
2022/01/13 14:28:10;;;;;;;;;;;;;;;;;;7392238;19;19970;-46
2022/01/13 14:30:38;;;;;;;;;;;;;;;;;;7391124;19;19911;-46
2022/01/13 14:33:17;;;;;;;;;;;;;;;;;;7391551;19;19931;-47
2022/01/13 14:35:48;;;;;;;;;;;;;;;;;;7391279;19;19918;-47
2022/01/13 14:38:16;;;;;;;;;;;;;;;;;;7390570;19;19915;-44
2022/01/13 14:40:43;;;;;;;;;;;;;;;;;;7390822;19;19911;-44
2022/01/13 14:43:18;;;;;;;;;;;;;;;;;;7393100;19;19930;-49
2022/01/13 14:46:04;;;;;;;;;;;;;;;;;;7398703;19;19914;-47
2022/01/13 14:48:33;;;;;;;;;;;;;;;;;;7398127;19;19915;-43
2022/01/13 14:51:04;;;;;;;;;;;;;;;;;;7398687;19;19926;-42
2022/01/13 14:53:31;;;;;;;;;;;;;;;;;;7399010;19;19919;-44
2022/01/13 14:55:58;;;;;;;;;;;;;;;;;;7399412;19;19957;-43
2022/01/13 14:58:27;;;;;;;;;;;;;;;;;;7396838;19;19918;-47
2022/01/13 15:00:56;;;;;;;;;;;;;;;;;;7397792;19;19922;-50
2022/01/13 15:03:25;;;;;;;;;;;;;;;;;;7397768;19;19923;-46
2022/01/13 15:05:54;;;;;;;;;;;;;;;;;;7397857;19;19931;-42
2022/01/13 15:08:21;;;;;;;;;;;;;;;;;;7398211;19;19930;-43
2022/01/13 15:10:49;;;;;;;;;;;;;;;;;;7396157;19;19918;-46
2022/01/13 15:13:16;;;;;;;;;;;;;;;;;;7398643;19;19919;-46
2022/01/13 15:15:44;;;;;;;;;;;;;;;;;;7397270;19;19926;-49
2022/01/13 15:18:14;;;;;;;;;;;;;;;;;;7397976;19;20351;-44
2022/01/13 15:20:41;;;;;;;;;;;;;;;;;;7399230;19;19996;-44
2022/01/13 15:23:09;;;;;;;;;;;;;;;;;;7397711;19;19915;-48
2022/01/13 15:25:37;;;;;;;;;;;;;;;;;;7394984;19;19936;-47
2022/01/13 15:28:05;;;;;;;;;;;;;;;;;;7397407;19;19985;-51
2022/01/13 15:30:33;;;;;;;;;;;;;;;;;;7397880;19;19926;-46
2022/01/13 15:33:01;;;;;;;;;;;;;;;;;;7397556;19;20449;-47
2022/01/13 15:35:28;;;;;;;;;;;;;;;;;;7397861;19;19918;-43
2022/01/13 15:37:57;;;;;;;;;;;;;;;;;;7397581;19;19922;-43
2022/01/13 15:40:25;;;;;;;;;;;;;;;;;;7397167;19;19915;-43
2022/01/13 15:42:52;;;;;;;;;;;;;;;;;;7396548;19;19929;-43
2022/01/13 15:45:19;;;;;;;;;;;;;;;;;;7395339;19;19911;-43
2022/01/13 15:47:47;;;;;;;;;;;;;;;;;;7397162;19;19936;-42
2022/01/13 15:50:16;;;;;;;;;;;;;;;;;;7396873;19;19910;-50
2022/01/13 15:52:43;;;;;;;;;;;;;;;;;;7396707;19;19946;-44
2022/01/13 15:55:11;;;;;;;;;;;;;;;;;;7396012;19;19926;-45
2022/01/13 15:57:38;;;;;;;;;;;;;;;;;;7397277;19;19990;-42
2022/01/13 16:00:16;;;;;;;;;;;;;;;;;;7396303;19;20328;-44
2022/01/13 16:02:44;;;;;;;;;;;;;;;;;;7396076;19;19936;-45
2022/01/13 16:05:12;;;;;;;;;;;;;;;;;;7394531;19;19910;-44
2022/01/13 16:07:39;;;;;;;;;;;;;;;;;;7396519;19;19915;-47
2022/01/13 16:10:07;;;;;;;;;;;;;;;;;;7395009;19;20245;-42
2022/01/13 16:12:35;;;;;;;;;;;;;;;;;;7396326;19;19911;-47
2022/01/13 16:15:06;;;;;;;;;;;;;;;;;;7396175;19;19918;-43
2022/01/13 16:17:35;;;;;;;;;;;;;;;;;;7396155;19;19918;-51
2022/01/13 16:20:02;;;;;;;;;;;;;;;;;;7396580;19;19946;-43
2022/01/13 16:22:29;;;;;;;;;;;;;;;;;;7395392;19;19929;-42
2022/01/13 16:24:57;;;;;;;;;;;;;;;;;;7394307;19;19926;-47
2022/01/13 16:27:24;;;;;;;;;;;;;;;;;;7395644;19;20240;-42
2022/01/13 16:29:56;;;;;;;;;;;;;;;;;;7393782;19;19921;-46
2022/01/13 16:32:25;;;;;;;;;;;;;;;;;;7395182;19;19911;-48
2022/01/13 16:34:52;;;;;;;;;;;;;;;;;;7395036;19;19921;-49
2022/01/13 16:37:19;;;;;;;;;;;;;;;;;;7394670;19;19918;-52
2022/01/13 16:39:46;;;;;;;;;;;;;;;;;;7395540;19;19922;-50
2022/01/13 16:42:14;;;;;;;;;;;;;;;;;;7393655;19;19950;-43
2022/01/13 16:44:43;;;;;;;;;;;;;;;;;;7392961;19;19935;-52
2022/01/13 16:47:11;;;;;;;;;;;;;;;;;;7395398;19;19915;-43
2022/01/13 16:49:39;;;;;;;;;;;;;;;;;;7394720;19;19915;-47
2022/01/13 16:52:07;;;;;;;;;;;;;;;;;;7395273;19;19911;-47
2022/01/13 16:54:35;;;;;;;;;;;;;;;;;;7394265;19;20347;-42
2022/01/13 16:57:03;;;;;;;;;;;;;;;;;;7393884;19;19926;-42
2022/01/13 16:59:31;;;;;;;;;;;;;;;;;;7393838;19;20325;-50
2022/01/13 17:01:58;;;;;;;;;;;;;;;;;;7393772;19;19937;-49
2022/01/13 17:04:26;;;;;;;;;;;;;;;;;;7393389;19;19914;-42
2022/01/13 17:06:54;;;;;;;;;;;;;;;;;;7392609;19;19919;-42
2022/01/13 17:09:22;;;;;;;;;;;;;;;;;;7393985;19;19939;-43
2022/01/13 17:11:49;;;;;;;;;;;;;;;;;;7391861;19;19923;-43
2022/01/13 17:14:16;;;;;;;;;;;;;;;;;;7394132;19;19921;-48
2022/01/13 17:16:44;;;;;;;;;;;;;;;;;;7393352;19;19931;-43
2022/01/13 17:19:14;;;;;;;;;;;;;;;;;;7393946;19;19918;-45
2022/01/13 17:21:45;;;;;;;;;;;;;;;;;;7397446;19;19932;-43
2022/01/13 17:24:12;;;;;;;;;;;;;;;;;;7393525;19;19921;-43
2022/01/13 17:26:40;;;;;;;;;;;;;;;;;;7393108;19;19911;-48
2022/01/13 17:29:07;;;;;;;;;;;;;;;;;;7393803;19;19918;-47
2022/01/13 17:31:35;;;;;;;;;;;;;;;;;;7393344;19;19929;-49
2022/01/13 17:34:03;;;;;;;;;;;;;;;;;;7393337;19;19985;-45
2022/01/13 17:36:32;;;;;;;;;;;;;;;;;;7393365;19;19946;-43
2022/01/13 17:39:02;;;;;;;;;;;;;;;;;;7392577;19;19914;-45
2022/01/13 17:41:30;;;;;;;;;;;;;;;;;;7392154;19;19915;-43